sensor_id;sensor_type;location;lat;lon;timestamp;P1;durP1;ratioP1;P2;durP2;ratioP2
11303;SDS011;5707;49.588;12.148;2023-07-22T00:02:16;2.33;;;2.13;;
11303;SDS011;5707;49.588;12.148;2023-07-22T00:04:41;2.05;;;1.80;;
11303;SDS011;5707;49.588;12.148;2023-07-22T00:07:07;1.98;;;1.88;;
11303;SDS011;5707;49.588;12.148;2023-07-22T00:09:33;2.03;;;1.92;;
11303;SDS011;5707;49.588;12.148;2023-07-22T00:12:03;1.92;;;1.83;;
11303;SDS011;5707;49.588;12.148;2023-07-22T00:14:29;2.08;;;1.98;;
11303;SDS011;5707;49.588;12.148;2023-07-22T00:16:55;1.90;;;1.80;;
11303;SDS011;5707;49.588;12.148;2023-07-22T00:19:21;2.40;;;1.65;;
11303;SDS011;5707;49.588;12.148;2023-07-22T00:21:46;2.28;;;2.17;;
11303;SDS011;5707;49.588;12.148;2023-07-22T00:24:12;3.28;;;1.85;;
11303;SDS011;5707;49.588;12.148;2023-07-22T00:26:38;2.30;;;1.95;;
11303;SDS011;5707;49.588;12.148;2023-07-22T00:29:03;2.25;;;2.05;;
11303;SDS011;5707;49.588;12.148;2023-07-22T00:31:29;2.70;;;2.38;;
11303;SDS011;5707;49.588;12.148;2023-07-22T00:33:55;2.40;;;2.20;;
11303;SDS011;5707;49.588;12.148;2023-07-22T00:36:20;2.33;;;2.03;;
11303;SDS011;5707;49.588;12.148;2023-07-22T00:38:46;2.55;;;2.35;;
11303;SDS011;5707;49.588;12.148;2023-07-22T00:41:11;2.38;;;2.10;;
11303;SDS011;5707;49.588;12.148;2023-07-22T00:43:37;2.53;;;2.35;;
11303;SDS011;5707;49.588;12.148;2023-07-22T00:46:03;2.47;;;2.30;;
11303;SDS011;5707;49.588;12.148;2023-07-22T00:48:29;2.55;;;2.45;;
11303;SDS011;5707;49.588;12.148;2023-07-22T00:50:56;3.85;;;2.40;;
11303;SDS011;5707;49.588;12.148;2023-07-22T00:53:22;2.30;;;2.20;;
11303;SDS011;5707;49.588;12.148;2023-07-22T00:55:48;3.40;;;2.55;;
11303;SDS011;5707;49.588;12.148;2023-07-22T00:58:13;2.75;;;2.55;;
11303;SDS011;5707;49.588;12.148;2023-07-22T01:00:40;3.95;;;2.60;;
11303;SDS011;5707;49.588;12.148;2023-07-22T01:03:05;2.53;;;2.33;;
11303;SDS011;5707;49.588;12.148;2023-07-22T01:05:32;2.75;;;2.55;;
11303;SDS011;5707;49.588;12.148;2023-07-22T01:07:59;3.05;;;2.75;;
11303;SDS011;5707;49.588;12.148;2023-07-22T01:10:25;2.70;;;2.50;;
11303;SDS011;5707;49.588;12.148;2023-07-22T01:12:51;3.10;;;2.90;;
11303;SDS011;5707;49.588;12.148;2023-07-22T01:15:16;3.33;;;2.53;;
11303;SDS011;5707;49.588;12.148;2023-07-22T01:17:43;2.40;;;2.30;;
11303;SDS011;5707;49.588;12.148;2023-07-22T01:20:09;2.50;;;2.30;;
11303;SDS011;5707;49.588;12.148;2023-07-22T01:22:35;3.35;;;2.47;;
11303;SDS011;5707;49.588;12.148;2023-07-22T01:25:01;2.60;;;2.40;;
11303;SDS011;5707;49.588;12.148;2023-07-22T01:27:28;2.90;;;2.53;;
11303;SDS011;5707;49.588;12.148;2023-07-22T01:29:54;3.00;;;2.80;;
11303;SDS011;5707;49.588;12.148;2023-07-22T01:32:20;2.58;;;2.38;;
11303;SDS011;5707;49.588;12.148;2023-07-22T01:34:45;2.65;;;2.45;;
11303;SDS011;5707;49.588;12.148;2023-07-22T01:37:11;3.05;;;2.42;;
11303;SDS011;5707;49.588;12.148;2023-07-22T01:39:37;3.25;;;2.60;;
11303;SDS011;5707;49.588;12.148;2023-07-22T01:42:02;3.25;;;2.42;;
11303;SDS011;5707;49.588;12.148;2023-07-22T01:44:29;2.05;;;1.85;;
11303;SDS011;5707;49.588;12.148;2023-07-22T01:46:54;2.33;;;2.22;;
11303;SDS011;5707;49.588;12.148;2023-07-22T01:49:20;2.55;;;2.35;;
11303;SDS011;5707;49.588;12.148;2023-07-22T01:51:45;2.42;;;2.30;;
11303;SDS011;5707;49.588;12.148;2023-07-22T01:54:11;2.75;;;2.55;;
11303;SDS011;5707;49.588;12.148;2023-07-22T01:56:37;3.17;;;2.25;;
11303;SDS011;5707;49.588;12.148;2023-07-22T01:59:04;2.65;;;2.45;;
11303;SDS011;5707;49.588;12.148;2023-07-22T02:01:30;2.60;;;2.40;;
11303;SDS011;5707;49.588;12.148;2023-07-22T02:03:56;2.30;;;2.20;;
11303;SDS011;5707;49.588;12.148;2023-07-22T02:06:22;2.53;;;2.30;;
11303;SDS011;5707;49.588;12.148;2023-07-22T02:08:47;2.30;;;2.10;;
11303;SDS011;5707;49.588;12.148;2023-07-22T02:11:13;2.70;;;2.50;;
11303;SDS011;5707;49.588;12.148;2023-07-22T02:13:39;2.78;;;2.58;;
11303;SDS011;5707;49.588;12.148;2023-07-22T02:16:04;2.55;;;2.35;;
11303;SDS011;5707;49.588;12.148;2023-07-22T02:18:30;2.60;;;2.42;;
11303;SDS011;5707;49.588;12.148;2023-07-22T02:20:56;2.88;;;2.55;;
11303;SDS011;5707;49.588;12.148;2023-07-22T02:23:22;2.40;;;2.30;;
11303;SDS011;5707;49.588;12.148;2023-07-22T02:25:51;2.85;;;2.50;;
11303;SDS011;5707;49.588;12.148;2023-07-22T02:28:18;2.83;;;2.63;;
11303;SDS011;5707;49.588;12.148;2023-07-22T02:30:48;2.97;;;2.47;;
11303;SDS011;5707;49.588;12.148;2023-07-22T02:33:15;2.83;;;2.63;;
11303;SDS011;5707;49.588;12.148;2023-07-22T02:35:41;2.45;;;2.25;;
11303;SDS011;5707;49.588;12.148;2023-07-22T02:38:07;2.60;;;2.40;;
11303;SDS011;5707;49.588;12.148;2023-07-22T02:40:39;2.95;;;2.72;;
11303;SDS011;5707;49.588;12.148;2023-07-22T02:43:04;2.53;;;1.98;;
11303;SDS011;5707;49.588;12.148;2023-07-22T02:45:31;3.65;;;2.95;;
11303;SDS011;5707;49.588;12.148;2023-07-22T02:47:58;3.30;;;3.00;;
11303;SDS011;5707;49.588;12.148;2023-07-22T02:50:23;2.88;;;2.67;;
11303;SDS011;5707;49.588;12.148;2023-07-22T02:52:49;2.65;;;2.45;;
11303;SDS011;5707;49.588;12.148;2023-07-22T02:55:15;2.90;;;2.70;;
11303;SDS011;5707;49.588;12.148;2023-07-22T02:57:45;2.67;;;2.47;;
11303;SDS011;5707;49.588;12.148;2023-07-22T03:00:13;2.40;;;2.20;;
11303;SDS011;5707;49.588;12.148;2023-07-22T03:02:48;2.53;;;2.33;;
11303;SDS011;5707;49.588;12.148;2023-07-22T03:05:15;4.10;;;2.28;;
11303;SDS011;5707;49.588;12.148;2023-07-22T03:07:41;3.30;;;3.00;;
11303;SDS011;5707;49.588;12.148;2023-07-22T03:10:07;2.10;;;2.00;;
11303;SDS011;5707;49.588;12.148;2023-07-22T03:12:33;2.67;;;2.47;;
11303;SDS011;5707;49.588;12.148;2023-07-22T03:14:59;2.60;;;2.40;;
11303;SDS011;5707;49.588;12.148;2023-07-22T03:17:25;2.70;;;2.50;;
11303;SDS011;5707;49.588;12.148;2023-07-22T03:19:51;2.60;;;2.40;;
11303;SDS011;5707;49.588;12.148;2023-07-22T03:22:17;2.60;;;2.40;;
11303;SDS011;5707;49.588;12.148;2023-07-22T03:24:43;2.63;;;2.42;;
11303;SDS011;5707;49.588;12.148;2023-07-22T03:27:09;2.42;;;2.22;;
11303;SDS011;5707;49.588;12.148;2023-07-22T03:29:35;2.60;;;2.40;;
11303;SDS011;5707;49.588;12.148;2023-07-22T03:32:02;2.17;;;2.08;;
11303;SDS011;5707;49.588;12.148;2023-07-22T03:34:27;2.53;;;2.33;;
11303;SDS011;5707;49.588;12.148;2023-07-22T03:36:53;2.95;;;2.70;;
11303;SDS011;5707;49.588;12.148;2023-07-22T03:39:19;2.75;;;2.55;;
11303;SDS011;5707;49.588;12.148;2023-07-22T03:41:45;2.88;;;2.40;;
11303;SDS011;5707;49.588;12.148;2023-07-22T03:44:10;2.78;;;2.58;;
11303;SDS011;5707;49.588;12.148;2023-07-22T03:46:36;3.28;;;3.08;;
11303;SDS011;5707;49.588;12.148;2023-07-22T03:49:02;2.60;;;2.40;;
11303;SDS011;5707;49.588;12.148;2023-07-22T03:51:28;2.50;;;2.40;;
11303;SDS011;5707;49.588;12.148;2023-07-22T03:53:54;2.60;;;2.40;;
11303;SDS011;5707;49.588;12.148;2023-07-22T03:56:20;2.72;;;2.45;;
11303;SDS011;5707;49.588;12.148;2023-07-22T03:58:48;2.60;;;2.40;;
11303;SDS011;5707;49.588;12.148;2023-07-22T04:01:14;2.08;;;1.98;;
11303;SDS011;5707;49.588;12.148;2023-07-22T04:03:39;2.25;;;2.10;;
11303;SDS011;5707;49.588;12.148;2023-07-22T04:06:05;2.40;;;2.28;;
11303;SDS011;5707;49.588;12.148;2023-07-22T04:08:30;2.13;;;2.03;;
11303;SDS011;5707;49.588;12.148;2023-07-22T04:10:56;2.75;;;2.55;;
11303;SDS011;5707;49.588;12.148;2023-07-22T04:13:23;2.65;;;2.45;;
11303;SDS011;5707;49.588;12.148;2023-07-22T04:15:50;2.15;;;2.05;;
11303;SDS011;5707;49.588;12.148;2023-07-22T04:18:16;2.40;;;2.20;;
11303;SDS011;5707;49.588;12.148;2023-07-22T04:20:43;2.63;;;2.38;;
11303;SDS011;5707;49.588;12.148;2023-07-22T04:23:09;2.38;;;2.17;;
11303;SDS011;5707;49.588;12.148;2023-07-22T04:25:53;2.08;;;1.98;;
11303;SDS011;5707;49.588;12.148;2023-07-22T04:28:19;2.08;;;1.98;;
11303;SDS011;5707;49.588;12.148;2023-07-22T04:30:54;1.95;;;1.85;;
11303;SDS011;5707;49.588;12.148;2023-07-22T04:33:24;2.75;;;2.50;;
11303;SDS011;5707;49.588;12.148;2023-07-22T04:35:50;2.40;;;2.20;;
11303;SDS011;5707;49.588;12.148;2023-07-22T04:38:22;3.33;;;2.30;;
11303;SDS011;5707;49.588;12.148;2023-07-22T04:40:48;2.20;;;1.83;;
11303;SDS011;5707;49.588;12.148;2023-07-22T04:43:13;2.30;;;2.20;;
11303;SDS011;5707;49.588;12.148;2023-07-22T04:45:39;2.58;;;2.38;;
11303;SDS011;5707;49.588;12.148;2023-07-22T04:48:05;2.42;;;2.25;;
11303;SDS011;5707;49.588;12.148;2023-07-22T04:50:31;2.30;;;2.10;;
11303;SDS011;5707;49.588;12.148;2023-07-22T04:52:57;2.72;;;2.35;;
11303;SDS011;5707;49.588;12.148;2023-07-22T04:55:23;2.13;;;2.03;;
11303;SDS011;5707;49.588;12.148;2023-07-22T04:57:48;2.30;;;2.10;;
11303;SDS011;5707;49.588;12.148;2023-07-22T05:00:16;2.80;;;2.40;;
11303;SDS011;5707;49.588;12.148;2023-07-22T05:02:44;2.50;;;2.30;;
11303;SDS011;5707;49.588;12.148;2023-07-22T05:05:14;2.65;;;2.42;;
11303;SDS011;5707;49.588;12.148;2023-07-22T05:07:40;3.50;;;2.47;;
11303;SDS011;5707;49.588;12.148;2023-07-22T05:10:06;2.95;;;2.40;;
11303;SDS011;5707;49.588;12.148;2023-07-22T05:12:37;2.50;;;2.40;;
11303;SDS011;5707;49.588;12.148;2023-07-22T05:15:03;3.15;;;2.95;;
11303;SDS011;5707;49.588;12.148;2023-07-22T05:17:29;2.95;;;2.75;;
11303;SDS011;5707;49.588;12.148;2023-07-22T05:19:56;3.17;;;2.97;;
11303;SDS011;5707;49.588;12.148;2023-07-22T05:22:22;3.10;;;2.80;;
11303;SDS011;5707;49.588;12.148;2023-07-22T05:24:47;4.10;;;3.10;;
11303;SDS011;5707;49.588;12.148;2023-07-22T05:27:13;3.38;;;2.80;;
11303;SDS011;5707;49.588;12.148;2023-07-22T05:29:39;2.88;;;2.67;;
11303;SDS011;5707;49.588;12.148;2023-07-22T05:32:05;2.50;;;2.30;;
11303;SDS011;5707;49.588;12.148;2023-07-22T05:34:31;2.55;;;2.35;;
11303;SDS011;5707;49.588;12.148;2023-07-22T05:36:57;2.47;;;2.28;;
11303;SDS011;5707;49.588;12.148;2023-07-22T05:39:22;4.07;;;2.63;;
11303;SDS011;5707;49.588;12.148;2023-07-22T05:41:48;2.78;;;2.47;;
11303;SDS011;5707;49.588;12.148;2023-07-22T05:44:13;2.17;;;2.08;;
11303;SDS011;5707;49.588;12.148;2023-07-22T05:46:39;2.88;;;2.67;;
11303;SDS011;5707;49.588;12.148;2023-07-22T05:49:04;3.38;;;2.17;;
11303;SDS011;5707;49.588;12.148;2023-07-22T05:51:30;2.22;;;2.10;;
11303;SDS011;5707;49.588;12.148;2023-07-22T05:53:56;3.70;;;2.75;;
11303;SDS011;5707;49.588;12.148;2023-07-22T05:56:22;3.28;;;2.42;;
11303;SDS011;5707;49.588;12.148;2023-07-22T05:58:48;3.13;;;2.10;;
11303;SDS011;5707;49.588;12.148;2023-07-22T06:01:13;2.22;;;2.03;;
11303;SDS011;5707;49.588;12.148;2023-07-22T06:03:39;2.50;;;2.30;;
11303;SDS011;5707;49.588;12.148;2023-07-22T06:06:05;1.98;;;1.77;;
11303;SDS011;5707;49.588;12.148;2023-07-22T06:08:31;2.60;;;2.28;;
11303;SDS011;5707;49.588;12.148;2023-07-22T06:10:56;2.40;;;2.20;;
11303;SDS011;5707;49.588;12.148;2023-07-22T06:13:22;2.65;;;2.45;;
11303;SDS011;5707;49.588;12.148;2023-07-22T06:15:48;4.38;;;2.47;;
11303;SDS011;5707;49.588;12.148;2023-07-22T06:18:13;2.88;;;2.60;;
11303;SDS011;5707;49.588;12.148;2023-07-22T06:20:39;2.65;;;2.38;;
11303;SDS011;5707;49.588;12.148;2023-07-22T06:23:04;2.90;;;2.70;;
11303;SDS011;5707;49.588;12.148;2023-07-22T06:25:30;2.50;;;2.33;;
11303;SDS011;5707;49.588;12.148;2023-07-22T06:27:56;3.42;;;2.13;;
11303;SDS011;5707;49.588;12.148;2023-07-22T06:30:21;2.72;;;2.53;;
11303;SDS011;5707;49.588;12.148;2023-07-22T06:32:47;2.72;;;2.35;;
11303;SDS011;5707;49.588;12.148;2023-07-22T06:35:13;2.60;;;2.40;;
11303;SDS011;5707;49.588;12.148;2023-07-22T06:37:38;2.72;;;2.50;;
11303;SDS011;5707;49.588;12.148;2023-07-22T06:40:05;2.58;;;2.30;;
11303;SDS011;5707;49.588;12.148;2023-07-22T06:42:31;3.78;;;2.00;;
11303;SDS011;5707;49.588;12.148;2023-07-22T06:44:57;2.63;;;2.42;;
11303;SDS011;5707;49.588;12.148;2023-07-22T06:47:22;2.40;;;2.20;;
11303;SDS011;5707;49.588;12.148;2023-07-22T06:49:48;3.53;;;2.60;;
11303;SDS011;5707;49.588;12.148;2023-07-22T06:52:15;6.15;;;2.42;;
11303;SDS011;5707;49.588;12.148;2023-07-22T06:54:41;2.70;;;2.50;;
11303;SDS011;5707;49.588;12.148;2023-07-22T06:57:08;3.40;;;3.13;;
11303;SDS011;5707;49.588;12.148;2023-07-22T06:59:34;3.42;;;2.72;;
11303;SDS011;5707;49.588;12.148;2023-07-22T07:01:59;2.70;;;2.50;;
11303;SDS011;5707;49.588;12.148;2023-07-22T07:04:25;2.70;;;2.50;;
11303;SDS011;5707;49.588;12.148;2023-07-22T07:06:51;2.80;;;2.60;;
11303;SDS011;5707;49.588;12.148;2023-07-22T07:09:16;3.20;;;2.90;;
11303;SDS011;5707;49.588;12.148;2023-07-22T07:11:42;2.95;;;2.75;;
11303;SDS011;5707;49.588;12.148;2023-07-22T07:14:08;4.18;;;2.55;;
11303;SDS011;5707;49.588;12.148;2023-07-22T07:16:33;3.15;;;2.95;;
11303;SDS011;5707;49.588;12.148;2023-07-22T07:19:00;2.72;;;2.53;;
11303;SDS011;5707;49.588;12.148;2023-07-22T07:21:26;2.92;;;2.60;;
11303;SDS011;5707;49.588;12.148;2023-07-22T07:23:53;2.70;;;2.50;;
11303;SDS011;5707;49.588;12.148;2023-07-22T07:26:19;4.70;;;3.20;;
11303;SDS011;5707;49.588;12.148;2023-07-22T07:28:46;3.03;;;2.78;;
11303;SDS011;5707;49.588;12.148;2023-07-22T07:31:12;3.72;;;3.42;;
11303;SDS011;5707;49.588;12.148;2023-07-22T07:33:38;3.28;;;3.05;;
11303;SDS011;5707;49.588;12.148;2023-07-22T07:36:03;3.42;;;3.13;;
11303;SDS011;5707;49.588;12.148;2023-07-22T07:38:30;2.55;;;2.28;;
11303;SDS011;5707;49.588;12.148;2023-07-22T07:40:56;2.60;;;2.40;;
11303;SDS011;5707;49.588;12.148;2023-07-22T07:43:23;2.40;;;2.20;;
11303;SDS011;5707;49.588;12.148;2023-07-22T07:45:49;2.67;;;2.47;;
11303;SDS011;5707;49.588;12.148;2023-07-22T07:48:15;3.22;;;2.90;;
11303;SDS011;5707;49.588;12.148;2023-07-22T07:50:41;2.83;;;2.55;;
11303;SDS011;5707;49.588;12.148;2023-07-22T07:53:07;2.92;;;2.38;;
11303;SDS011;5707;49.588;12.148;2023-07-22T07:55:33;3.33;;;3.03;;
11303;SDS011;5707;49.588;12.148;2023-07-22T07:57:59;2.55;;;2.35;;
11303;SDS011;5707;49.588;12.148;2023-07-22T08:00:24;3.90;;;3.00;;
11303;SDS011;5707;49.588;12.148;2023-07-22T08:02:50;3.00;;;2.80;;
11303;SDS011;5707;49.588;12.148;2023-07-22T08:05:15;3.85;;;2.67;;
11303;SDS011;5707;49.588;12.148;2023-07-22T08:07:41;3.45;;;3.15;;
11303;SDS011;5707;49.588;12.148;2023-07-22T08:10:07;3.00;;;2.80;;
11303;SDS011;5707;49.588;12.148;2023-07-22T08:12:33;3.20;;;2.80;;
11303;SDS011;5707;49.588;12.148;2023-07-22T08:14:59;4.22;;;2.92;;
11303;SDS011;5707;49.588;12.148;2023-07-22T08:17:24;3.28;;;3.08;;
11303;SDS011;5707;49.588;12.148;2023-07-22T08:19:51;3.30;;;2.92;;
11303;SDS011;5707;49.588;12.148;2023-07-22T08:22:16;3.08;;;2.88;;
11303;SDS011;5707;49.588;12.148;2023-07-22T08:24:43;3.63;;;3.33;;
11303;SDS011;5707;49.588;12.148;2023-07-22T08:27:08;3.38;;;3.10;;
11303;SDS011;5707;49.588;12.148;2023-07-22T08:29:34;4.20;;;3.13;;
11303;SDS011;5707;49.588;12.148;2023-07-22T08:32:00;4.75;;;2.83;;
11303;SDS011;5707;49.588;12.148;2023-07-22T08:34:25;2.88;;;2.67;;
11303;SDS011;5707;49.588;12.148;2023-07-22T08:36:51;3.30;;;2.90;;
11303;SDS011;5707;49.588;12.148;2023-07-22T08:39:17;2.80;;;2.60;;
11303;SDS011;5707;49.588;12.148;2023-07-22T08:41:44;2.60;;;2.40;;
11303;SDS011;5707;49.588;12.148;2023-07-22T08:44:15;2.58;;;2.38;;
11303;SDS011;5707;49.588;12.148;2023-07-22T08:46:46;2.60;;;2.40;;
11303;SDS011;5707;49.588;12.148;2023-07-22T08:49:14;2.88;;;2.67;;
11303;SDS011;5707;49.588;12.148;2023-07-22T08:51:40;4.00;;;3.00;;
11303;SDS011;5707;49.588;12.148;2023-07-22T08:54:06;2.85;;;2.65;;
11303;SDS011;5707;49.588;12.148;2023-07-22T08:56:33;2.85;;;2.65;;
11303;SDS011;5707;49.588;12.148;2023-07-22T08:59:00;4.22;;;3.42;;
11303;SDS011;5707;49.588;12.148;2023-07-22T09:01:26;3.28;;;2.90;;
11303;SDS011;5707;49.588;12.148;2023-07-22T09:03:52;2.92;;;2.72;;
11303;SDS011;5707;49.588;12.148;2023-07-22T09:06:21;8.20;;;3.53;;
11303;SDS011;5707;49.588;12.148;2023-07-22T09:08:47;3.60;;;2.80;;
11303;SDS011;5707;49.588;12.148;2023-07-22T09:11:13;2.70;;;2.50;;
11303;SDS011;5707;49.588;12.148;2023-07-22T09:13:39;2.78;;;2.58;;
11303;SDS011;5707;49.588;12.148;2023-07-22T09:16:08;3.85;;;2.47;;
11303;SDS011;5707;49.588;12.148;2023-07-22T09:18:35;2.53;;;2.25;;
11303;SDS011;5707;49.588;12.148;2023-07-22T09:21:00;2.83;;;2.63;;
11303;SDS011;5707;49.588;12.148;2023-07-22T09:23:33;2.58;;;2.38;;
11303;SDS011;5707;49.588;12.148;2023-07-22T09:26:12;2.55;;;2.00;;
11303;SDS011;5707;49.588;12.148;2023-07-22T09:28:48;2.50;;;2.38;;
11303;SDS011;5707;49.588;12.148;2023-07-22T09:31:15;2.85;;;2.45;;
11303;SDS011;5707;49.588;12.148;2023-07-22T09:33:41;2.22;;;2.00;;
11303;SDS011;5707;49.588;12.148;2023-07-22T09:36:06;3.15;;;2.20;;
11303;SDS011;5707;49.588;12.148;2023-07-22T09:38:32;2.72;;;2.38;;
11303;SDS011;5707;49.588;12.148;2023-07-22T09:40:57;2.00;;;1.90;;
11303;SDS011;5707;49.588;12.148;2023-07-22T09:43:23;2.58;;;2.38;;
11303;SDS011;5707;49.588;12.148;2023-07-22T09:45:49;2.45;;;2.25;;
11303;SDS011;5707;49.588;12.148;2023-07-22T09:48:15;2.08;;;1.88;;
11303;SDS011;5707;49.588;12.148;2023-07-22T09:50:40;2.17;;;2.00;;
11303;SDS011;5707;49.588;12.148;2023-07-22T09:53:06;1.92;;;1.83;;
11303;SDS011;5707;49.588;12.148;2023-07-22T09:55:32;2.20;;;2.05;;
11303;SDS011;5707;49.588;12.148;2023-07-22T09:58:02;2.40;;;2.20;;
11303;SDS011;5707;49.588;12.148;2023-07-22T10:00:37;4.10;;;2.10;;
11303;SDS011;5707;49.588;12.148;2023-07-22T10:03:07;3.10;;;2.20;;
11303;SDS011;5707;49.588;12.148;2023-07-22T10:05:35;2.17;;;2.08;;
11303;SDS011;5707;49.588;12.148;2023-07-22T10:08:04;2.40;;;2.20;;
11303;SDS011;5707;49.588;12.148;2023-07-22T10:10:32;2.60;;;2.00;;
11303;SDS011;5707;49.588;12.148;2023-07-22T10:12:59;2.35;;;2.15;;
11303;SDS011;5707;49.588;12.148;2023-07-22T10:15:27;4.68;;;2.28;;
11303;SDS011;5707;49.588;12.148;2023-07-22T10:17:54;3.03;;;2.28;;
11303;SDS011;5707;49.588;12.148;2023-07-22T10:20:20;2.15;;;1.90;;
11303;SDS011;5707;49.588;12.148;2023-07-22T10:22:48;2.45;;;2.25;;
11303;SDS011;5707;49.588;12.148;2023-07-22T10:25:14;3.78;;;2.30;;
11303;SDS011;5707;49.588;12.148;2023-07-22T10:27:42;3.13;;;2.20;;
11303;SDS011;5707;49.588;12.148;2023-07-22T10:30:12;2.05;;;1.90;;
11303;SDS011;5707;49.588;12.148;2023-07-22T10:32:39;1.98;;;1.85;;
11303;SDS011;5707;49.588;12.148;2023-07-22T10:35:09;2.42;;;1.70;;
11303;SDS011;5707;49.588;12.148;2023-07-22T10:37:36;1.88;;;1.77;;
11303;SDS011;5707;49.588;12.148;2023-07-22T10:45:28;1.70;;;1.60;;
11303;SDS011;5707;49.588;12.148;2023-07-22T10:48:02;1.55;;;1.45;;
11303;SDS011;5707;49.588;12.148;2023-07-22T10:53:08;2.08;;;1.98;;
11303;SDS011;5707;49.588;12.148;2023-07-22T10:56:02;1.42;;;1.33;;
11303;SDS011;5707;49.588;12.148;2023-07-22T10:58:26;1.63;;;1.52;;
11303;SDS011;5707;49.588;12.148;2023-07-22T11:00:53;3.15;;;1.85;;
11303;SDS011;5707;49.588;12.148;2023-07-22T11:03:18;2.75;;;1.70;;
11303;SDS011;5707;49.588;12.148;2023-07-22T11:05:48;1.60;;;1.50;;
11303;SDS011;5707;49.588;12.148;2023-07-22T11:08:14;1.58;;;1.40;;
11303;SDS011;5707;49.588;12.148;2023-07-22T11:10:51;1.85;;;1.67;;
11303;SDS011;5707;49.588;12.148;2023-07-22T11:13:25;1.83;;;1.58;;
11303;SDS011;5707;49.588;12.148;2023-07-22T11:15:52;1.83;;;1.65;;
11303;SDS011;5707;49.588;12.148;2023-07-22T11:18:17;2.95;;;1.80;;
11303;SDS011;5707;49.588;12.148;2023-07-22T11:20:43;1.50;;;1.40;;
11303;SDS011;5707;49.588;12.148;2023-07-22T11:23:08;4.28;;;1.80;;
11303;SDS011;5707;49.588;12.148;2023-07-22T11:25:34;1.50;;;1.40;;
11303;SDS011;5707;49.588;12.148;2023-07-22T11:28:00;1.83;;;1.73;;
11303;SDS011;5707;49.588;12.148;2023-07-22T11:30:25;2.88;;;1.85;;
11303;SDS011;5707;49.588;12.148;2023-07-22T11:32:52;1.88;;;1.77;;
11303;SDS011;5707;49.588;12.148;2023-07-22T11:35:17;2.00;;;1.90;;
11303;SDS011;5707;49.588;12.148;2023-07-22T11:37:44;2.95;;;1.50;;
11303;SDS011;5707;49.588;12.148;2023-07-22T11:40:13;2.00;;;1.80;;
11303;SDS011;5707;49.588;12.148;2023-07-22T11:42:39;1.67;;;1.58;;
11303;SDS011;5707;49.588;12.148;2023-07-22T11:45:04;2.95;;;1.60;;
11303;SDS011;5707;49.588;12.148;2023-07-22T11:47:31;2.00;;;1.75;;
11303;SDS011;5707;49.588;12.148;2023-07-22T11:49:56;3.63;;;2.03;;
11303;SDS011;5707;49.588;12.148;2023-07-22T11:52:23;2.05;;;1.63;;
11303;SDS011;5707;49.588;12.148;2023-07-22T11:54:48;3.05;;;1.67;;
11303;SDS011;5707;49.588;12.148;2023-07-22T11:57:14;2.00;;;1.58;;
11303;SDS011;5707;49.588;12.148;2023-07-22T11:59:45;1.90;;;1.80;;
11303;SDS011;5707;49.588;12.148;2023-07-22T12:02:16;2.78;;;2.08;;
11303;SDS011;5707;49.588;12.148;2023-07-22T12:04:52;3.53;;;1.50;;
11303;SDS011;5707;49.588;12.148;2023-07-22T12:07:26;2.05;;;1.48;;
11303;SDS011;5707;49.588;12.148;2023-07-22T12:09:54;2.50;;;1.80;;
11303;SDS011;5707;49.588;12.148;2023-07-22T12:12:21;2.00;;;1.90;;
11303;SDS011;5707;49.588;12.148;2023-07-22T12:15:00;1.70;;;1.60;;
11303;SDS011;5707;49.588;12.148;2023-07-22T12:20:28;1.52;;;1.42;;
11303;SDS011;5707;49.588;12.148;2023-07-22T12:22:55;1.63;;;1.52;;
11303;SDS011;5707;49.588;12.148;2023-07-22T12:25:22;2.38;;;1.40;;
11303;SDS011;5707;49.588;12.148;2023-07-22T12:27:48;1.27;;;1.27;;
11303;SDS011;5707;49.588;12.148;2023-07-22T12:30:14;4.10;;;1.80;;
11303;SDS011;5707;49.588;12.148;2023-07-22T12:32:41;2.63;;;1.52;;
11303;SDS011;5707;49.588;12.148;2023-07-22T12:35:06;1.60;;;1.50;;
11303;SDS011;5707;49.588;12.148;2023-07-22T12:37:33;1.65;;;1.55;;
11303;SDS011;5707;49.588;12.148;2023-07-22T12:39:58;2.00;;;1.90;;
11303;SDS011;5707;49.588;12.148;2023-07-22T12:42:24;1.77;;;1.67;;
11303;SDS011;5707;49.588;12.148;2023-07-22T12:44:50;1.92;;;1.83;;
11303;SDS011;5707;49.588;12.148;2023-07-22T12:47:15;1.73;;;1.63;;
11303;SDS011;5707;49.588;12.148;2023-07-22T12:49:41;2.78;;;1.60;;
11303;SDS011;5707;49.588;12.148;2023-07-22T12:52:07;3.42;;;1.33;;
11303;SDS011;5707;49.588;12.148;2023-07-22T12:54:36;1.80;;;1.70;;
11303;SDS011;5707;49.588;12.148;2023-07-22T12:57:02;1.85;;;1.40;;
11303;SDS011;5707;49.588;12.148;2023-07-22T12:59:28;1.60;;;1.50;;
11303;SDS011;5707;49.588;12.148;2023-07-22T13:01:54;2.55;;;1.50;;
11303;SDS011;5707;49.588;12.148;2023-07-22T13:04:20;1.75;;;1.65;;
11303;SDS011;5707;49.588;12.148;2023-07-22T13:06:45;1.60;;;1.48;;
11303;SDS011;5707;49.588;12.148;2023-07-22T13:09:11;3.45;;;1.55;;
11303;SDS011;5707;49.588;12.148;2023-07-22T13:11:37;2.00;;;1.83;;
11303;SDS011;5707;49.588;12.148;2023-07-22T13:14:02;3.00;;;1.38;;
11303;SDS011;5707;49.588;12.148;2023-07-22T13:16:28;2.08;;;1.67;;
11303;SDS011;5707;49.588;12.148;2023-07-22T13:18:54;3.10;;;1.88;;
11303;SDS011;5707;49.588;12.148;2023-07-22T13:21:21;1.58;;;1.48;;
11303;SDS011;5707;49.588;12.148;2023-07-22T13:23:46;2.47;;;1.80;;
11303;SDS011;5707;49.588;12.148;2023-07-22T13:26:12;1.77;;;1.63;;
11303;SDS011;5707;49.588;12.148;2023-07-22T13:28:37;2.35;;;1.52;;
11303;SDS011;5707;49.588;12.148;2023-07-22T13:31:03;1.60;;;1.50;;
11303;SDS011;5707;49.588;12.148;2023-07-22T13:33:28;1.60;;;1.50;;
11303;SDS011;5707;49.588;12.148;2023-07-22T13:35:54;2.53;;;1.33;;
11303;SDS011;5707;49.588;12.148;2023-07-22T13:38:19;2.53;;;1.60;;
11303;SDS011;5707;49.588;12.148;2023-07-22T13:40:46;3.78;;;1.50;;
11303;SDS011;5707;49.588;12.148;2023-07-22T13:43:11;1.60;;;1.50;;
11303;SDS011;5707;49.588;12.148;2023-07-22T13:45:37;2.08;;;1.50;;
11303;SDS011;5707;49.588;12.148;2023-07-22T13:48:02;1.50;;;1.40;;
11303;SDS011;5707;49.588;12.148;2023-07-22T13:50:28;1.70;;;1.60;;
11303;SDS011;5707;49.588;12.148;2023-07-22T13:52:54;2.92;;;1.40;;
11303;SDS011;5707;49.588;12.148;2023-07-22T13:55:19;1.92;;;1.70;;
11303;SDS011;5707;49.588;12.148;2023-07-22T13:57:45;1.63;;;1.35;;
11303;SDS011;5707;49.588;12.148;2023-07-22T14:00:11;2.83;;;1.85;;
11303;SDS011;5707;49.588;12.148;2023-07-22T14:02:37;2.15;;;1.77;;
11303;SDS011;5707;49.588;12.148;2023-07-22T14:05:02;1.67;;;1.42;;
11303;SDS011;5707;49.588;12.148;2023-07-22T14:07:29;1.83;;;1.73;;
11303;SDS011;5707;49.588;12.148;2023-07-22T14:09:54;3.28;;;2.00;;
11303;SDS011;5707;49.588;12.148;2023-07-22T14:12:20;2.13;;;1.40;;
11303;SDS011;5707;49.588;12.148;2023-07-22T14:14:46;1.65;;;1.55;;
11303;SDS011;5707;49.588;12.148;2023-07-22T14:17:11;1.30;;;1.20;;
11303;SDS011;5707;49.588;12.148;2023-07-22T14:19:37;1.98;;;1.60;;
11303;SDS011;5707;49.588;12.148;2023-07-22T14:22:03;1.75;;;1.63;;
11303;SDS011;5707;49.588;12.148;2023-07-22T14:24:29;3.22;;;1.50;;
11303;SDS011;5707;49.588;12.148;2023-07-22T14:26:54;2.55;;;1.40;;
11303;SDS011;5707;49.588;12.148;2023-07-22T14:29:20;2.35;;;1.77;;
11303;SDS011;5707;49.588;12.148;2023-07-22T14:31:46;1.50;;;1.40;;
11303;SDS011;5707;49.588;12.148;2023-07-22T14:34:12;2.72;;;1.52;;
11303;SDS011;5707;49.588;12.148;2023-07-22T14:36:37;2.50;;;1.70;;
11303;SDS011;5707;49.588;12.148;2023-07-22T14:39:03;2.00;;;1.90;;
11303;SDS011;5707;49.588;12.148;2023-07-22T14:41:29;1.48;;;1.38;;
11303;SDS011;5707;49.588;12.148;2023-07-22T14:43:55;1.50;;;1.30;;
11303;SDS011;5707;49.588;12.148;2023-07-22T14:46:22;4.68;;;1.70;;
11303;SDS011;5707;49.588;12.148;2023-07-22T14:48:47;1.00;;;1.00;;
11303;SDS011;5707;49.588;12.148;2023-07-22T14:51:13;1.73;;;1.63;;
11303;SDS011;5707;49.588;12.148;2023-07-22T14:53:39;1.65;;;1.42;;
11303;SDS011;5707;49.588;12.148;2023-07-22T14:56:04;1.50;;;1.40;;